PWSweather.com
Personal Weather Stations
Station Observations
KCTCOLEB1
Sandy Brook, Colebrook, CT 06021

Sandy BrookColebrook, CT 06021

Lat: 42.0018, Lon: -73.0825

Elevation: 935

Station Type: Davis Vantage Pro2 + Solar + UV

Latest ConditionsUpdated 7:50:01 AM EDT Friday, Oct 24, 2014
Currently Today's Max Today's Min Today's Average
Temperature 44.6°F7.0°C 45.4°F7.4°C 44.6°F7.0°C 44.9°F7.2°C
Dew Point 44.1°F6.7°C 44.9°F7.2°C 44.1°F6.7°C 44.4°F6.9°C
Winds 0.2 mph S0.3 kmh S 1.0 mph S1.6 kmh S - 0.3 mph 0.5 kmh
Wind Gusts 1.0 mph1.6 kmh 3.0 mph4.8 kmh - -
Humidity 98% 99% 98% 98%
Pressure 29.75 in1007.5 mb 29.76 in1007.8 mb 29.73 in1006.8 mb -
Precipitation - 0.07 in1.8 mm - -
Hour Temp Dew Point Humidity Winds Wind Gusts Pressure Precip Precip Rate Daily Precip Total
07:50 AM 44.6°F7.0°C 44.1°F6.7°C 98% 0.2 mph S0.3 kmh S 1.0 mph1.6 kmh 29.75 in1007.5 mb 0.00 in0.0 mm 0.00 in/hr0.0 mm/hr 0.07 in1.8 mm
07:40 AM 44.6°F7.0°C 44.1°F6.7°C 98% Calm Calm -- 29.75 in1007.5 mb 0.00 in0.0 mm 0.00 in/hr0.0 mm/hr 0.07 in1.8 mm
07:30 AM 44.6°F7.0°C 44.1°F6.7°C 98% Calm Calm -- 29.75 in1007.5 mb 0.00 in0.0 mm 0.00 in/hr0.0 mm/hr 0.07 in1.8 mm
07:20 AM 44.6°F7.0°C 44.1°F6.7°C 98% Calm Calm -- 29.75 in1007.5 mb 0.01 in0.3 mm 0.06 in/hr1.5 mm/hr 0.07 in1.8 mm
07:10 AM 44.7°F7.1°C 44.1°F6.7°C 98% Calm Calm -- 29.75 in1007.5 mb 0.01 in0.3 mm 0.06 in/hr1.5 mm/hr 0.06 in1.5 mm
07:00 AM 44.7°F7.1°C 44.2°F6.8°C 98% Calm Calm -- 29.75 in1007.5 mb 0.01 in0.3 mm 0.01 in/hr0.3 mm/hr 0.05 in1.3 mm
06:50 AM 44.7°F7.1°C 44.2°F6.8°C 98% Calm Calm -- 29.76 in1007.8 mb 0.00 in0.0 mm 0.00 in/hr0.0 mm/hr 0.04 in1.0 mm
06:40 AM 44.7°F7.1°C 44.2°F6.8°C 98% 0.5 mph SSW0.8 kmh SSW 1.0 mph1.6 kmh 29.76 in1007.8 mb 0.00 in0.0 mm 0.00 in/hr0.0 mm/hr 0.04 in1.0 mm
06:30 AM 44.7°F7.1°C 44.2°F6.8°C 98% 0.7 mph W1.1 kmh W 2.0 mph3.2 kmh 29.75 in1007.5 mb 0.01 in0.3 mm 0.06 in/hr1.5 mm/hr 0.04 in1.0 mm
06:20 AM 44.7°F7.1°C 44.2°F6.8°C 98% 0.1 mph W0.2 kmh W -- 29.75 in1007.5 mb 0.00 in0.0 mm 0.00 in/hr0.0 mm/hr 0.03 in0.8 mm
06:10 AM 44.7°F7.1°C 44.2°F6.8°C 98% 0.5 mph W0.8 kmh W 1.0 mph1.6 kmh 29.75 in1007.5 mb 0.01 in0.3 mm 0.06 in/hr1.5 mm/hr 0.03 in0.8 mm
06:00 AM 44.7°F7.1°C 44.4°F6.9°C 99% 0.2 mph W0.3 kmh W 1.0 mph1.6 kmh 29.75 in1007.5 mb 0.00 in0.0 mm 0.00 in/hr0.0 mm/hr 0.02 in0.5 mm
05:50 AM 44.7°F7.1°C 44.4°F6.9°C 99% 0.7 mph W1.1 kmh W 2.0 mph3.2 kmh 29.75 in1007.5 mb 0.01 in0.3 mm 0.06 in/hr1.5 mm/hr 0.02 in0.5 mm
05:40 AM 44.7°F7.1°C 44.4°F6.9°C 99% 0.2 mph SW0.3 kmh SW 1.0 mph1.6 kmh 29.75 in1007.5 mb 0.00 in0.0 mm 0.00 in/hr0.0 mm/hr 0.01 in0.3 mm
05:30 AM 44.7°F7.1°C 44.2°F6.8°C 98% 0.3 mph SSE0.5 kmh SSE 1.0 mph1.6 kmh 29.75 in1007.5 mb 0.00 in0.0 mm 0.00 in/hr0.0 mm/hr 0.01 in0.3 mm
05:20 AM 44.7°F7.1°C 44.2°F6.8°C 98% 0.3 mph SSE0.5 kmh SSE 1.0 mph1.6 kmh 29.74 in1007.1 mb 0.00 in0.0 mm 0.00 in/hr0.0 mm/hr 0.01 in0.3 mm
05:10 AM 44.7°F7.1°C 44.2°F6.8°C 98% 0.2 mph SSE0.3 kmh SSE 1.0 mph1.6 kmh 29.74 in1007.1 mb 0.00 in0.0 mm 0.00 in/hr0.0 mm/hr 0.01 in0.3 mm
05:00 AM 44.7°F7.1°C 44.2°F6.8°C 98% 0.8 mph SSE1.3 kmh SSE 2.0 mph3.2 kmh 29.74 in1007.1 mb 0.00 in0.0 mm 0.00 in/hr0.0 mm/hr 0.01 in0.3 mm
04:50 AM 44.8°F7.1°C 44.2°F6.8°C 98% 0.4 mph S0.6 kmh S 1.0 mph1.6 kmh 29.74 in1007.1 mb 0.00 in0.0 mm 0.00 in/hr0.0 mm/hr 0.01 in0.3 mm
04:40 AM 44.8°F7.1°C 44.3°F6.8°C 98% 0.3 mph S0.5 kmh S 1.0 mph1.6 kmh 29.74 in1007.1 mb 0.00 in0.0 mm 0.00 in/hr0.0 mm/hr 0.01 in0.3 mm
04:30 AM 44.8°F7.1°C 44.3°F6.8°C 98% 0.4 mph S0.6 kmh S 1.0 mph1.6 kmh 29.73 in1006.8 mb 0.00 in0.0 mm 0.00 in/hr0.0 mm/hr 0.01 in0.3 mm
04:20 AM 44.8°F7.1°C 44.3°F6.8°C 98% 0.2 mph NE0.3 kmh NE 1.0 mph1.6 kmh 29.73 in1006.8 mb 0.00 in0.0 mm 0.00 in/hr0.0 mm/hr 0.01 in0.3 mm
04:10 AM 44.8°F7.1°C 44.3°F6.8°C 98% 0.5 mph NE0.8 kmh NE 3.0 mph4.8 kmh 29.73 in1006.8 mb 0.00 in0.0 mm 0.00 in/hr0.0 mm/hr 0.01 in0.3 mm
04:00 AM 44.8°F7.1°C 44.3°F6.8°C 98% Calm Calm -- 29.73 in1006.8 mb 0.00 in0.0 mm 0.00 in/hr0.0 mm/hr 0.01 in0.3 mm
03:50 AM 44.8°F7.1°C 44.3°F6.8°C 98% Calm Calm -- 29.73 in1006.8 mb 0.00 in0.0 mm 0.00 in/hr0.0 mm/hr 0.01 in0.3 mm
03:40 AM 44.8°F7.1°C 44.3°F6.8°C 98% 0.3 mph WNW0.5 kmh WNW 1.0 mph1.6 kmh 29.73 in1006.8 mb 0.00 in0.0 mm 0.00 in/hr0.0 mm/hr 0.01 in0.3 mm
03:30 AM 44.8°F7.1°C 44.3°F6.8°C 98% 1.0 mph S1.6 kmh S 1.0 mph1.6 kmh 29.73 in1006.8 mb 0.00 in0.0 mm 0.00 in/hr0.0 mm/hr 0.01 in0.3 mm
03:20 AM 44.8°F7.1°C 44.3°F6.8°C 98% 0.6 mph WNW1.0 kmh WNW 1.0 mph1.6 kmh 29.73 in1006.8 mb 0.00 in0.0 mm 0.00 in/hr0.0 mm/hr 0.01 in0.3 mm
03:10 AM 44.8°F7.1°C 44.3°F6.8°C 98% 0.5 mph WNW0.8 kmh WNW 1.0 mph1.6 kmh 29.73 in1006.8 mb 0.00 in0.0 mm 0.00 in/hr0.0 mm/hr 0.01 in0.3 mm
03:00 AM 44.8°F7.1°C 44.3°F6.8°C 98% 0.8 mph NW1.3 kmh NW 1.0 mph1.6 kmh 29.73 in1006.8 mb 0.00 in0.0 mm 0.00 in/hr0.0 mm/hr 0.01 in0.3 mm
02:50 AM 44.8°F7.1°C 44.3°F6.8°C 98% 0.2 mph NW0.3 kmh NW 1.0 mph1.6 kmh 29.74 in1007.1 mb 0.00 in0.0 mm 0.00 in/hr0.0 mm/hr 0.01 in0.3 mm
02:40 AM 44.9°F7.2°C 44.4°F6.9°C 98% 0.5 mph NW0.8 kmh NW 1.0 mph1.6 kmh 29.74 in1007.1 mb 0.01 in0.3 mm 0.06 in/hr1.5 mm/hr 0.01 in0.3 mm
02:30 AM 44.9°F7.2°C 44.4°F6.9°C 98% 0.3 mph NW0.5 kmh NW 1.0 mph1.6 kmh 29.74 in1007.1 mb 0.00 in0.0 mm 0.00 in/hr0.0 mm/hr 0.00 in0.0 mm
02:20 AM 44.9°F7.2°C 44.4°F6.9°C 98% Calm Calm -- 29.74 in1007.1 mb 0.00 in0.0 mm 0.00 in/hr0.0 mm/hr 0.00 in0.0 mm
02:10 AM 45.0°F7.2°C 44.5°F6.9°C 98% Calm Calm -- 29.74 in1007.1 mb 0.00 in0.0 mm 0.00 in/hr0.0 mm/hr 0.00 in0.0 mm
02:00 AM 45.1°F7.3°C 44.6°F7.0°C 98% 0.5 mph N0.8 kmh N 1.0 mph1.6 kmh 29.73 in1006.8 mb 0.00 in0.0 mm 0.00 in/hr0.0 mm/hr 0.00 in0.0 mm
01:50 AM 45.1°F7.3°C 44.6°F7.0°C 98% 0.3 mph ESE0.5 kmh ESE 2.0 mph3.2 kmh 29.73 in1006.8 mb 0.00 in0.0 mm 0.00 in/hr0.0 mm/hr 0.00 in0.0 mm
01:40 AM 45.1°F7.3°C 44.6°F7.0°C 98% 0.3 mph ESE0.5 kmh ESE 1.0 mph1.6 kmh 29.73 in1006.8 mb 0.00 in0.0 mm 0.00 in/hr0.0 mm/hr 0.00 in0.0 mm
01:30 AM 45.1°F7.3°C 44.6°F7.0°C 98% 0.5 mph ESE0.8 kmh ESE 1.0 mph1.6 kmh 29.73 in1006.8 mb 0.00 in0.0 mm 0.00 in/hr0.0 mm/hr 0.00 in0.0 mm
01:20 AM 45.2°F7.3°C 44.7°F7.1°C 98% 0.1 mph SW0.2 kmh SW 1.0 mph1.6 kmh 29.73 in1006.8 mb 0.00 in0.0 mm 0.00 in/hr0.0 mm/hr 0.00 in0.0 mm
01:10 AM 45.2°F7.3°C 44.7°F7.1°C 98% Calm Calm -- 29.73 in1006.8 mb 0.00 in0.0 mm 0.00 in/hr0.0 mm/hr 0.00 in0.0 mm
01:00 AM 45.3°F7.4°C 44.8°F7.1°C 98% Calm Calm -- 29.74 in1007.1 mb 0.00 in0.0 mm 0.00 in/hr0.0 mm/hr 0.00 in0.0 mm
12:50 AM 45.3°F7.4°C 44.8°F7.1°C 98% Calm Calm -- 29.74 in1007.1 mb 0.00 in0.0 mm 0.00 in/hr0.0 mm/hr 0.00 in0.0 mm
12:40 AM 45.3°F7.4°C 44.8°F7.1°C 98% Calm Calm -- 29.74 in1007.1 mb 0.00 in0.0 mm 0.00 in/hr0.0 mm/hr 0.00 in0.0 mm
12:30 AM 45.4°F7.4°C 44.8°F7.1°C 98% Calm Calm -- 29.73 in1006.8 mb 0.00 in0.0 mm 0.00 in/hr0.0 mm/hr 0.00 in0.0 mm
12:20 AM 45.4°F7.4°C 44.9°F7.2°C 98% Calm Calm -- 29.73 in1006.8 mb 0.00 in0.0 mm 0.00 in/hr0.0 mm/hr 0.00 in0.0 mm
12:10 AM 45.4°F7.4°C 44.9°F7.2°C 98% Calm Calm -- 29.74 in1007.1 mb 0.00 in0.0 mm 0.00 in/hr0.0 mm/hr 0.00 in0.0 mm
12:00 AM 45.4°F7.4°C 44.9°F7.2°C 98% Calm Calm -- 29.74 in1007.1 mb 0.00 in0.0 mm 0.00 in/hr0.0 mm/hr 0.00 in0.0 mm